Date,TemperatureHighF,TemperatureAvgF,TemperatureLowF,DewpointHighF,DewpointAvgF,DewpointLowF,HumidityHigh,HumidityAvg,HumidityLow,PressureMaxIn,PressureMinIn,WindSpeedMaxMPH,WindSpeedAvgMPH,GustSpeedMaxMPH,PrecipitationSumIn
2013-2-1,30.6,23.8,17.1,18.9,9.2,2.8,77,54,35,30.12,29.63,30,10,30,0.00
2013-2-2,23.6,18.8,12.3,20.2,10.9,4.0,89,72,54,30.14,29.83,16,4,16,0.00
2013-2-3,35.1,25.6,19.1,29.0,21.8,13.8,89,85,68,29.83,29.62,21,2,21,0.19
2013-2-4,32.1,24.3,18.2,23.3,14.2,9.5,88,65,49,29.86,29.71,18,5,18,0.00
2013-2-5,36.2,30.2,26.3,31.0,27.0,23.3,89,88,79,29.76,29.68,8,2,8,0.02
2013-2-6,37.7,30.4,24.2,30.6,24.1,18.4,89,78,64,30.16,29.74,18,4,18,0.00
2013-2-7,35.9,29.0,21.8,24.2,19.5,15.8,89,68,47,30.28,30.06,12,3,12,0.00
2013-2-8,38.4,33.3,29.2,35.3,30.1,23.7,89,88,75,30.06,29.55,18,5,18,0.09
2013-2-9,36.6,26.5,21.6,26.2,18.1,14.1,89,71,52,30.19,29.67,34,9,34,0.14
2013-2-10,55.7,29.5,15.7,26.0,16.9,11.4,88,62,28,30.29,30.08,15,3,15,0.02
2013-2-11,44.1,37.3,31.4,41.1,34.0,25.8,89,88,79,30.07,29.49,12,4,12,0.80
2013-2-12,47.7,38.4,30.3,30.0,27.5,25.3,83,65,48,29.81,29.67,24,7,24,0.00
2013-2-13,47.2,33.4,24.2,34.0,28.3,21.2,89,82,59,29.79,29.50,8,2,8,0.05
2013-2-14,51.9,35.6,30.3,35.6,30.2,27.3,89,82,51,29.81,29.56,11,2,11,0.35
2013-2-15,55.1,39.8,31.4,39.8,32.7,25.9,89,78,46,30.16,29.78,16,4,16,0.31
2013-2-16,35.5,30.9,27.0,32.6,26.0,16.5,89,82,64,29.92,29.74,16,3,16,0.52
2013-2-17,28.3,24.0,18.8,19.4,9.6,1.5,83,54,38,30.06,29.72,34,12,34,0.00
2013-2-18,43.2,25.4,16.2,19.3,10.3,4.1,70,53,27,30.26,30.05,26,6,26,0.00
2013-2-19,39.3,33.9,27.6,36.0,28.8,18.6,89,82,66,30.08,29.63,21,5,21,0.52
2013-2-20,33.5,26.1,21.1,24.3,13.7,9.8,70,59,50,30.02,29.74,26,12,26,0.43
2013-2-21,37.7,26.8,20.9,19.4,14.8,10.7,71,60,46,30.25,29.99,22,11,22,3.64
2013-2-22,35.3,28.9,22.2,29.4,22.8,16.3,89,78,63,30.31,30.16,11,3,11,0.00
2013-2-23,47.2,37.9,31.7,44.0,35.0,28.9,89,89,89,30.16,29.75,7,3,7,1.70
2013-2-24,41.6,36.5,29.9,37.7,29.8,21.5,89,77,61,30.00,29.72,27,7,27,0.07
2013-2-25,49.2,34.3,27.6,29.7,24.8,21.7,80,69,46,30.16,30.00,17,5,17,0.00
2013-2-26,45.2,35.7,26.9,36.9,31.0,23.9,89,83,66,30.17,29.65,25,6,25,1.96
2013-2-27,50.6,42.1,36.4,44.2,37.9,32.9,89,85,73,29.65,29.44,27,7,27,0.24
2013-2-28,44.3,38.9,33.0,37.7,33.0,28.3,89,80,56,29.62,29.53,17,5,17,0.02